sensor_id;sensor_type;location;lat;lon;timestamp;temperature;humidity
5278;DHT22;2662;51.194;6.614;2023-03-01T00:00:50;0.90;99.90
5278;DHT22;2662;51.194;6.614;2023-03-01T00:03:16;0.90;99.90
5278;DHT22;2662;51.194;6.614;2023-03-01T00:05:46;0.80;99.90
5278;DHT22;2662;51.194;6.614;2023-03-01T00:08:14;0.80;99.90
5278;DHT22;2662;51.194;6.614;2023-03-01T00:10:41;0.80;99.90
5278;DHT22;2662;51.194;6.614;2023-03-01T00:13:08;0.70;99.90
5278;DHT22;2662;51.194;6.614;2023-03-01T00:15:38;0.70;99.90
5278;DHT22;2662;51.194;6.614;2023-03-01T00:18:05;0.70;99.90
5278;DHT22;2662;51.194;6.614;2023-03-01T00:20:31;0.70;99.90
5278;DHT22;2662;51.194;6.614;2023-03-01T00:22:58;0.70;99.90
5278;DHT22;2662;51.194;6.614;2023-03-01T00:25:26;0.60;99.90
5278;DHT22;2662;51.194;6.614;2023-03-01T00:27:53;0.60;99.90
5278;DHT22;2662;51.194;6.614;2023-03-01T00:30:19;0.60;99.90
5278;DHT22;2662;51.194;6.614;2023-03-01T00:32:46;0.60;99.90
5278;DHT22;2662;51.194;6.614;2023-03-01T00:35:13;0.60;99.90
5278;DHT22;2662;51.194;6.614;2023-03-01T00:37:40;0.60;99.90
5278;DHT22;2662;51.194;6.614;2023-03-01T00:40:08;0.50;99.90
5278;DHT22;2662;51.194;6.614;2023-03-01T00:42:37;0.50;99.90
5278;DHT22;2662;51.194;6.614;2023-03-01T00:45:04;0.50;99.90
5278;DHT22;2662;51.194;6.614;2023-03-01T00:47:33;0.40;99.90
5278;DHT22;2662;51.194;6.614;2023-03-01T00:49:59;0.40;99.90
5278;DHT22;2662;51.194;6.614;2023-03-01T00:52:26;0.40;99.90
5278;DHT22;2662;51.194;6.614;2023-03-01T00:54:53;0.40;99.90
5278;DHT22;2662;51.194;6.614;2023-03-01T00:57:20;0.40;99.90
5278;DHT22;2662;51.194;6.614;2023-03-01T00:59:48;0.40;99.90
5278;DHT22;2662;51.194;6.614;2023-03-01T01:02:15;0.40;99.90
5278;DHT22;2662;51.194;6.614;2023-03-01T01:04:41;0.40;99.90
5278;DHT22;2662;51.194;6.614;2023-03-01T01:07:08;0.30;99.90
5278;DHT22;2662;51.194;6.614;2023-03-01T01:09:35;0.30;99.90
5278;DHT22;2662;51.194;6.614;2023-03-01T01:12:02;0.30;99.90
5278;DHT22;2662;51.194;6.614;2023-03-01T01:14:29;0.20;99.90
5278;DHT22;2662;51.194;6.614;2023-03-01T01:16:57;0.20;99.90
5278;DHT22;2662;51.194;6.614;2023-03-01T01:19:24;0.10;99.90
5278;DHT22;2662;51.194;6.614;2023-03-01T01:21:51;0.10;99.90
5278;DHT22;2662;51.194;6.614;2023-03-01T01:24:18;0.10;99.90
5278;DHT22;2662;51.194;6.614;2023-03-01T01:26:45;0.10;99.90
5278;DHT22;2662;51.194;6.614;2023-03-01T01:29:12;0.00;99.90
5278;DHT22;2662;51.194;6.614;2023-03-01T01:31:41;0.00;99.90
5278;DHT22;2662;51.194;6.614;2023-03-01T01:34:20;-0.10;99.90
5278;DHT22;2662;51.194;6.614;2023-03-01T01:36:48;-0.10;99.90
5278;DHT22;2662;51.194;6.614;2023-03-01T01:39:16;-0.20;99.90
5278;DHT22;2662;51.194;6.614;2023-03-01T01:41:42;-0.10;99.90
5278;DHT22;2662;51.194;6.614;2023-03-01T01:44:12;-0.10;99.90
5278;DHT22;2662;51.194;6.614;2023-03-01T01:46:41;-0.10;99.90
5278;DHT22;2662;51.194;6.614;2023-03-01T01:49:19;-0.10;99.90
5278;DHT22;2662;51.194;6.614;2023-03-01T01:51:49;-0.10;99.90
5278;DHT22;2662;51.194;6.614;2023-03-01T01:54:18;-0.10;99.90
5278;DHT22;2662;51.194;6.614;2023-03-01T01:56:49;-0.10;99.90
5278;DHT22;2662;51.194;6.614;2023-03-01T01:59:17;-0.10;99.90
5278;DHT22;2662;51.194;6.614;2023-03-01T02:01:44;-0.10;99.90
5278;DHT22;2662;51.194;6.614;2023-03-01T02:04:12;-0.10;99.90
5278;DHT22;2662;51.194;6.614;2023-03-01T02:06:41;-0.10;99.90
5278;DHT22;2662;51.194;6.614;2023-03-01T02:09:13;-0.10;99.90
5278;DHT22;2662;51.194;6.614;2023-03-01T02:11:41;-0.10;99.90
5278;DHT22;2662;51.194;6.614;2023-03-01T02:14:09;-0.10;99.90
5278;DHT22;2662;51.194;6.614;2023-03-01T02:16:35;-0.10;99.90
5278;DHT22;2662;51.194;6.614;2023-03-01T02:19:03;-0.20;99.90
5278;DHT22;2662;51.194;6.614;2023-03-01T02:21:39;-0.20;99.90
5278;DHT22;2662;51.194;6.614;2023-03-01T02:24:15;-0.20;99.90
5278;DHT22;2662;51.194;6.614;2023-03-01T02:26:50;-0.20;99.90
5278;DHT22;2662;51.194;6.614;2023-03-01T02:29:19;-0.20;99.90
5278;DHT22;2662;51.194;6.614;2023-03-01T02:31:47;-0.30;99.90
5278;DHT22;2662;51.194;6.614;2023-03-01T02:34:15;-0.30;99.90
5278;DHT22;2662;51.194;6.614;2023-03-01T02:36:45;-0.30;99.90
5278;DHT22;2662;51.194;6.614;2023-03-01T02:39:17;-0.40;99.90
5278;DHT22;2662;51.194;6.614;2023-03-01T02:41:47;-0.40;99.90
5278;DHT22;2662;51.194;6.614;2023-03-01T02:44:14;-0.40;99.90
5278;DHT22;2662;51.194;6.614;2023-03-01T02:46:47;-0.50;99.90
5278;DHT22;2662;51.194;6.614;2023-03-01T02:49:20;-0.60;99.90
5278;DHT22;2662;51.194;6.614;2023-03-01T02:51:56;-0.50;99.90
5278;DHT22;2662;51.194;6.614;2023-03-01T02:54:31;-0.50;99.90
5278;DHT22;2662;51.194;6.614;2023-03-01T02:57:00;-0.50;99.90
5278;DHT22;2662;51.194;6.614;2023-03-01T02:59:32;-0.60;99.90
5278;DHT22;2662;51.194;6.614;2023-03-01T03:02:01;-0.70;99.90
5278;DHT22;2662;51.194;6.614;2023-03-01T03:04:28;-0.70;99.90
5278;DHT22;2662;51.194;6.614;2023-03-01T03:06:55;-0.60;99.90
5278;DHT22;2662;51.194;6.614;2023-03-01T03:09:24;-0.60;99.90
5278;DHT22;2662;51.194;6.614;2023-03-01T03:11:51;-0.60;99.90
5278;DHT22;2662;51.194;6.614;2023-03-01T03:14:18;-0.60;99.90
5278;DHT22;2662;51.194;6.614;2023-03-01T03:16:46;-0.70;99.90
5278;DHT22;2662;51.194;6.614;2023-03-01T03:19:15;-0.60;99.90
5278;DHT22;2662;51.194;6.614;2023-03-01T03:21:42;-0.60;99.90
5278;DHT22;2662;51.194;6.614;2023-03-01T03:24:09;-0.60;99.90
5278;DHT22;2662;51.194;6.614;2023-03-01T03:26:36;-0.70;99.90
5278;DHT22;2662;51.194;6.614;2023-03-01T03:29:03;-0.70;99.90
5278;DHT22;2662;51.194;6.614;2023-03-01T03:31:29;-0.70;99.90
5278;DHT22;2662;51.194;6.614;2023-03-01T03:33:56;-0.80;99.90
5278;DHT22;2662;51.194;6.614;2023-03-01T03:36:25;-0.80;99.90
5278;DHT22;2662;51.194;6.614;2023-03-01T03:38:52;-0.70;99.90
5278;DHT22;2662;51.194;6.614;2023-03-01T03:41:19;-0.70;99.90
5278;DHT22;2662;51.194;6.614;2023-03-01T03:43:45;-0.70;99.90
5278;DHT22;2662;51.194;6.614;2023-03-01T03:46:13;-0.70;99.90
5278;DHT22;2662;51.194;6.614;2023-03-01T03:48:41;-0.80;99.90
5278;DHT22;2662;51.194;6.614;2023-03-01T03:51:10;-0.80;99.90
5278;DHT22;2662;51.194;6.614;2023-03-01T03:53:39;-0.80;99.90
5278;DHT22;2662;51.194;6.614;2023-03-01T03:56:06;-0.80;99.90
5278;DHT22;2662;51.194;6.614;2023-03-01T03:58:33;-0.80;99.90
5278;DHT22;2662;51.194;6.614;2023-03-01T04:01:00;-0.90;99.90
5278;DHT22;2662;51.194;6.614;2023-03-01T04:03:28;-0.90;99.90
5278;DHT22;2662;51.194;6.614;2023-03-01T04:05:57;-0.80;99.90
5278;DHT22;2662;51.194;6.614;2023-03-01T04:08:24;-0.80;99.90
5278;DHT22;2662;51.194;6.614;2023-03-01T04:10:57;-0.80;99.90
5278;DHT22;2662;51.194;6.614;2023-03-01T04:13:25;-0.80;99.90
5278;DHT22;2662;51.194;6.614;2023-03-01T04:15:52;-0.80;99.90
5278;DHT22;2662;51.194;6.614;2023-03-01T04:18:21;-0.90;99.90
5278;DHT22;2662;51.194;6.614;2023-03-01T04:20:48;-0.90;99.90
5278;DHT22;2662;51.194;6.614;2023-03-01T04:23:19;-0.90;99.90
5278;DHT22;2662;51.194;6.614;2023-03-01T04:25:48;-0.90;99.90
5278;DHT22;2662;51.194;6.614;2023-03-01T04:28:21;-0.90;99.90
5278;DHT22;2662;51.194;6.614;2023-03-01T04:30:50;-0.90;99.90
5278;DHT22;2662;51.194;6.614;2023-03-01T04:33:17;-0.90;99.90
5278;DHT22;2662;51.194;6.614;2023-03-01T04:35:44;-0.90;99.90
5278;DHT22;2662;51.194;6.614;2023-03-01T04:38:11;-0.90;99.90
5278;DHT22;2662;51.194;6.614;2023-03-01T04:40:38;-0.90;99.90
5278;DHT22;2662;51.194;6.614;2023-03-01T04:43:04;-0.90;99.90
5278;DHT22;2662;51.194;6.614;2023-03-01T04:45:33;-1.00;99.90
5278;DHT22;2662;51.194;6.614;2023-03-01T04:48:01;-1.00;99.90
5278;DHT22;2662;51.194;6.614;2023-03-01T04:50:28;-1.00;99.90
5278;DHT22;2662;51.194;6.614;2023-03-01T04:52:55;-1.00;99.90
5278;DHT22;2662;51.194;6.614;2023-03-01T04:55:24;-1.00;99.90
5278;DHT22;2662;51.194;6.614;2023-03-01T04:57:51;-1.10;99.90
5278;DHT22;2662;51.194;6.614;2023-03-01T05:00:18;-1.10;99.90
5278;DHT22;2662;51.194;6.614;2023-03-01T05:02:51;-1.10;99.90
5278;DHT22;2662;51.194;6.614;2023-03-01T05:05:24;-1.10;99.90
5278;DHT22;2662;51.194;6.614;2023-03-01T05:07:53;-1.10;99.90
5278;DHT22;2662;51.194;6.614;2023-03-01T05:10:20;-1.10;99.90
5278;DHT22;2662;51.194;6.614;2023-03-01T05:12:46;-1.10;99.90
5278;DHT22;2662;51.194;6.614;2023-03-01T05:15:13;-1.10;99.90
5278;DHT22;2662;51.194;6.614;2023-03-01T05:17:40;-1.10;99.90
5278;DHT22;2662;51.194;6.614;2023-03-01T05:20:10;-1.20;99.90
5278;DHT22;2662;51.194;6.614;2023-03-01T05:22:37;-1.10;99.90
5278;DHT22;2662;51.194;6.614;2023-03-01T05:25:04;-1.20;99.90
5278;DHT22;2662;51.194;6.614;2023-03-01T05:27:32;-1.20;99.90
5278;DHT22;2662;51.194;6.614;2023-03-01T05:29:59;-1.20;99.90
5278;DHT22;2662;51.194;6.614;2023-03-01T05:32:39;-1.30;99.90
5278;DHT22;2662;51.194;6.614;2023-03-01T05:35:06;-1.20;99.90
5278;DHT22;2662;51.194;6.614;2023-03-01T05:37:34;-1.30;99.90
5278;DHT22;2662;51.194;6.614;2023-03-01T05:40:01;-1.30;99.90
5278;DHT22;2662;51.194;6.614;2023-03-01T05:42:30;-1.30;99.90
5278;DHT22;2662;51.194;6.614;2023-03-01T05:44:57;-1.30;99.90
5278;DHT22;2662;51.194;6.614;2023-03-01T05:47:23;-1.30;99.90
5278;DHT22;2662;51.194;6.614;2023-03-01T05:49:50;-1.30;99.90
5278;DHT22;2662;51.194;6.614;2023-03-01T05:52:17;-1.40;99.90
5278;DHT22;2662;51.194;6.614;2023-03-01T05:54:45;-1.40;99.90
5278;DHT22;2662;51.194;6.614;2023-03-01T05:57:11;-1.40;99.90
5278;DHT22;2662;51.194;6.614;2023-03-01T05:59:38;-1.40;99.90
5278;DHT22;2662;51.194;6.614;2023-03-01T06:02:05;-1.50;99.90
5278;DHT22;2662;51.194;6.614;2023-03-01T06:04:32;-1.50;99.90
5278;DHT22;2662;51.194;6.614;2023-03-01T06:06:58;-1.50;99.90
5278;DHT22;2662;51.194;6.614;2023-03-01T06:09:25;-1.50;99.90
5278;DHT22;2662;51.194;6.614;2023-03-01T06:11:53;-1.60;99.90
5278;DHT22;2662;51.194;6.614;2023-03-01T06:14:20;-1.50;99.90
5278;DHT22;2662;51.194;6.614;2023-03-01T06:16:46;-1.50;99.90
5278;DHT22;2662;51.194;6.614;2023-03-01T06:19:13;-1.50;99.90
5278;DHT22;2662;51.194;6.614;2023-03-01T06:21:40;-1.50;99.90
5278;DHT22;2662;51.194;6.614;2023-03-01T06:24:07;-1.40;99.90
5278;DHT22;2662;51.194;6.614;2023-03-01T06:26:33;-1.40;99.90
5278;DHT22;2662;51.194;6.614;2023-03-01T06:29:01;-1.40;99.90
5278;DHT22;2662;51.194;6.614;2023-03-01T06:31:28;-1.30;99.90
5278;DHT22;2662;51.194;6.614;2023-03-01T06:33:55;-1.30;99.90
5278;DHT22;2662;51.194;6.614;2023-03-01T06:36:21;-1.30;99.90
5278;DHT22;2662;51.194;6.614;2023-03-01T06:38:48;-1.20;99.90
5278;DHT22;2662;51.194;6.614;2023-03-01T06:41:15;-1.10;99.90
5278;DHT22;2662;51.194;6.614;2023-03-01T06:43:41;-1.00;99.90
5278;DHT22;2662;51.194;6.614;2023-03-01T06:46:09;-1.00;99.90
5278;DHT22;2662;51.194;6.614;2023-03-01T06:48:36;-0.90;99.90
5278;DHT22;2662;51.194;6.614;2023-03-01T06:51:03;-0.70;99.90
5278;DHT22;2662;51.194;6.614;2023-03-01T06:53:30;-0.50;99.90
5278;DHT22;2662;51.194;6.614;2023-03-01T06:55:57;-0.40;99.90
5278;DHT22;2662;51.194;6.614;2023-03-01T06:58:25;-0.20;99.90
5278;DHT22;2662;51.194;6.614;2023-03-01T07:00:52;0.00;99.90
5278;DHT22;2662;51.194;6.614;2023-03-01T07:03:20;0.20;99.90
5278;DHT22;2662;51.194;6.614;2023-03-01T07:05:48;0.80;99.90
5278;DHT22;2662;51.194;6.614;2023-03-01T07:08:17;1.80;99.90
5278;DHT22;2662;51.194;6.614;2023-03-01T07:10:43;2.90;99.90
5278;DHT22;2662;51.194;6.614;2023-03-01T07:13:10;3.80;99.90
5278;DHT22;2662;51.194;6.614;2023-03-01T07:15:37;4.50;99.90
5278;DHT22;2662;51.194;6.614;2023-03-01T07:18:03;4.80;99.90
5278;DHT22;2662;51.194;6.614;2023-03-01T07:20:31;5.00;99.90
5278;DHT22;2662;51.194;6.614;2023-03-01T07:22:58;5.30;99.90
5278;DHT22;2662;51.194;6.614;2023-03-01T07:25:25;6.10;99.90
5278;DHT22;2662;51.194;6.614;2023-03-01T07:27:52;6.80;99.90
5278;DHT22;2662;51.194;6.614;2023-03-01T07:30:19;7.20;99.90
5278;DHT22;2662;51.194;6.614;2023-03-01T07:32:46;7.20;99.90
5278;DHT22;2662;51.194;6.614;2023-03-01T07:35:13;7.60;99.90
5278;DHT22;2662;51.194;6.614;2023-03-01T07:37:42;8.30;99.90
5278;DHT22;2662;51.194;6.614;2023-03-01T07:40:10;8.70;99.90
5278;DHT22;2662;51.194;6.614;2023-03-01T07:42:37;8.30;99.90
5278;DHT22;2662;51.194;6.614;2023-03-01T07:45:05;8.50;99.90
5278;DHT22;2662;51.194;6.614;2023-03-01T07:47:32;8.80;99.90
5278;DHT22;2662;51.194;6.614;2023-03-01T07:49:59;9.70;99.90
5278;DHT22;2662;51.194;6.614;2023-03-01T07:52:26;10.10;98.40
5278;DHT22;2662;51.194;6.614;2023-03-01T07:54:54;10.40;97.60
5278;DHT22;2662;51.194;6.614;2023-03-01T07:57:21;11.10;96.40
5278;DHT22;2662;51.194;6.614;2023-03-01T07:59:48;11.30;95.30
5278;DHT22;2662;51.194;6.614;2023-03-01T08:02:14;9.90;95.10
5278;DHT22;2662;51.194;6.614;2023-03-01T08:04:41;9.50;96.20
5278;DHT22;2662;51.194;6.614;2023-03-01T08:07:08;8.40;97.30
5278;DHT22;2662;51.194;6.614;2023-03-01T08:09:35;7.80;99.10
5278;DHT22;2662;51.194;6.614;2023-03-01T08:12:04;8.40;99.30
5278;DHT22;2662;51.194;6.614;2023-03-01T08:14:31;9.40;98.40
5278;DHT22;2662;51.194;6.614;2023-03-01T08:16:58;9.90;97.80
5278;DHT22;2662;51.194;6.614;2023-03-01T08:19:25;10.90;96.50
5278;DHT22;2662;51.194;6.614;2023-03-01T08:21:53;11.10;94.50
5278;DHT22;2662;51.194;6.614;2023-03-01T08:24:20;10.50;94.50
5278;DHT22;2662;51.194;6.614;2023-03-01T08:26:46;10.50;94.80
5278;DHT22;2662;51.194;6.614;2023-03-01T08:29:14;10.60;94.60
5278;DHT22;2662;51.194;6.614;2023-03-01T08:31:41;10.50;94.30
5278;DHT22;2662;51.194;6.614;2023-03-01T08:34:09;9.30;95.60
5278;DHT22;2662;51.194;6.614;2023-03-01T08:36:38;9.10;96.20
5278;DHT22;2662;51.194;6.614;2023-03-01T08:39:06;8.40;96.70
5278;DHT22;2662;51.194;6.614;2023-03-01T08:41:33;7.80;98.00
5278;DHT22;2662;51.194;6.614;2023-03-01T08:43:59;8.10;98.70
5278;DHT22;2662;51.194;6.614;2023-03-01T08:46:28;8.90;98.50
5278;DHT22;2662;51.194;6.614;2023-03-01T08:48:55;9.20;98.40
5278;DHT22;2662;51.194;6.614;2023-03-01T08:51:23;10.30;97.00
5278;DHT22;2662;51.194;6.614;2023-03-01T08:53:49;11.40;95.40
5278;DHT22;2662;51.194;6.614;2023-03-01T08:56:17;11.50;94.30
5278;DHT22;2662;51.194;6.614;2023-03-01T08:58:45;11.20;93.20
5278;DHT22;2662;51.194;6.614;2023-03-01T09:01:14;10.70;93.90
5278;DHT22;2662;51.194;6.614;2023-03-01T09:03:43;10.20;93.80
5278;DHT22;2662;51.194;6.614;2023-03-01T09:06:10;10.30;94.40
5278;DHT22;2662;51.194;6.614;2023-03-01T09:08:38;10.30;94.00
5278;DHT22;2662;51.194;6.614;2023-03-01T09:11:07;10.70;94.50
5278;DHT22;2662;51.194;6.614;2023-03-01T09:13:34;10.80;93.60
5278;DHT22;2662;51.194;6.614;2023-03-01T09:16:03;10.70;93.60
5278;DHT22;2662;51.194;6.614;2023-03-01T09:18:30;11.30;93.70
5278;DHT22;2662;51.194;6.614;2023-03-01T09:21:02;11.90;92.40
5278;DHT22;2662;51.194;6.614;2023-03-01T09:23:33;11.00;92.60
5278;DHT22;2662;51.194;6.614;2023-03-01T09:26:01;10.20;92.40
5278;DHT22;2662;51.194;6.614;2023-03-01T09:28:28;9.70;93.30
5278;DHT22;2662;51.194;6.614;2023-03-01T09:30:58;9.40;93.60
5278;DHT22;2662;51.194;6.614;2023-03-01T09:33:24;9.60;93.70
5278;DHT22;2662;51.194;6.614;2023-03-01T09:35:56;9.60;93.10
5278;DHT22;2662;51.194;6.614;2023-03-01T09:38:24;9.50;93.00
5278;DHT22;2662;51.194;6.614;2023-03-01T09:40:51;9.10;93.40
5278;DHT22;2662;51.194;6.614;2023-03-01T09:43:23;8.90;94.10
5278;DHT22;2662;51.194;6.614;2023-03-01T09:45:53;9.20;93.50
5278;DHT22;2662;51.194;6.614;2023-03-01T09:48:25;9.10;93.90
5278;DHT22;2662;51.194;6.614;2023-03-01T09:50:52;10.00;93.00
5278;DHT22;2662;51.194;6.614;2023-03-01T09:53:22;9.80;93.00
5278;DHT22;2662;51.194;6.614;2023-03-01T09:55:55;9.90;93.00
5278;DHT22;2662;51.194;6.614;2023-03-01T09:58:34;10.60;92.40
5278;DHT22;2662;51.194;6.614;2023-03-01T10:01:23;10.40;91.90
5278;DHT22;2662;51.194;6.614;2023-03-01T10:04:05;11.10;92.70
5278;DHT22;2662;51.194;6.614;2023-03-01T10:06:38;11.90;90.60
5278;DHT22;2662;51.194;6.614;2023-03-01T10:09:10;11.80;88.50
5278;DHT22;2662;51.194;6.614;2023-03-01T10:11:43;11.30;88.70
5278;DHT22;2662;51.194;6.614;2023-03-01T10:14:18;11.30;89.00
5278;DHT22;2662;51.194;6.614;2023-03-01T10:16:52;11.50;89.00
5278;DHT22;2662;51.194;6.614;2023-03-01T10:19:25;11.10;87.30
5278;DHT22;2662;51.194;6.614;2023-03-01T10:21:57;11.20;87.00
5278;DHT22;2662;51.194;6.614;2023-03-01T10:24:29;10.90;86.20
5278;DHT22;2662;51.194;6.614;2023-03-01T10:27:04;10.70;87.30
5278;DHT22;2662;51.194;6.614;2023-03-01T10:29:39;10.00;88.20
5278;DHT22;2662;51.194;6.614;2023-03-01T10:32:11;9.50;90.00
5278;DHT22;2662;51.194;6.614;2023-03-01T10:34:37;9.40;90.20
5278;DHT22;2662;51.194;6.614;2023-03-01T10:37:11;9.00;90.70
5278;DHT22;2662;51.194;6.614;2023-03-01T10:39:54;9.00;91.00
5278;DHT22;2662;51.194;6.614;2023-03-01T10:42:27;9.30;90.90
5278;DHT22;2662;51.194;6.614;2023-03-01T10:44:55;9.50;91.10
5278;DHT22;2662;51.194;6.614;2023-03-01T10:47:24;9.20;90.60
5278;DHT22;2662;51.194;6.614;2023-03-01T10:49:54;8.60;91.80
5278;DHT22;2662;51.194;6.614;2023-03-01T10:52:23;8.60;91.60
5278;DHT22;2662;51.194;6.614;2023-03-01T10:54:54;7.90;92.50
5278;DHT22;2662;51.194;6.614;2023-03-01T10:57:29;7.60;92.60
5278;DHT22;2662;51.194;6.614;2023-03-01T11:00:30;7.10;93.30
5278;DHT22;2662;51.194;6.614;2023-03-01T11:03:11;6.50;94.40
5278;DHT22;2662;51.194;6.614;2023-03-01T11:05:51;6.50;95.80
5278;DHT22;2662;51.194;6.614;2023-03-01T11:08:31;6.40;96.10
5278;DHT22;2662;51.194;6.614;2023-03-01T11:11:17;6.20;95.70
5278;DHT22;2662;51.194;6.614;2023-03-01T11:13:52;6.20;95.50
5278;DHT22;2662;51.194;6.614;2023-03-01T11:16:25;6.10;96.40
5278;DHT22;2662;51.194;6.614;2023-03-01T11:19:03;6.30;96.90
5278;DHT22;2662;51.194;6.614;2023-03-01T11:21:32;6.50;96.40
5278;DHT22;2662;51.194;6.614;2023-03-01T11:24:02;6.30;96.60
5278;DHT22;2662;51.194;6.614;2023-03-01T11:26:31;6.50;96.70
5278;DHT22;2662;51.194;6.614;2023-03-01T11:29:05;6.40;96.90
5278;DHT22;2662;51.194;6.614;2023-03-01T11:31:34;6.70;96.40
5278;DHT22;2662;51.194;6.614;2023-03-01T11:34:07;6.80;96.00
5278;DHT22;2662;51.194;6.614;2023-03-01T11:36:41;6.70;96.40
5278;DHT22;2662;51.194;6.614;2023-03-01T11:39:20;6.40;96.00
5278;DHT22;2662;51.194;6.614;2023-03-01T11:41:52;6.60;96.50
5278;DHT22;2662;51.194;6.614;2023-03-01T11:44:24;6.70;96.40
5278;DHT22;2662;51.194;6.614;2023-03-01T11:47:11;6.60;96.30
5278;DHT22;2662;51.194;6.614;2023-03-01T11:49:53;6.70;95.90
5278;DHT22;2662;51.194;6.614;2023-03-01T11:52:33;6.70;95.90
5278;DHT22;2662;51.194;6.614;2023-03-01T11:55:18;6.70;95.30
5278;DHT22;2662;51.194;6.614;2023-03-01T11:58:13;6.80;96.10
5278;DHT22;2662;51.194;6.614;2023-03-01T12:00:56;6.90;96.20
5278;DHT22;2662;51.194;6.614;2023-03-01T12:03:37;6.90;96.10
5278;DHT22;2662;51.194;6.614;2023-03-01T12:06:35;7.00;95.30
5278;DHT22;2662;51.194;6.614;2023-03-01T12:09:17;7.10;95.90
5278;DHT22;2662;51.194;6.614;2023-03-01T12:11:59;7.10;95.20
5278;DHT22;2662;51.194;6.614;2023-03-01T12:14:40;7.30;95.20
5278;DHT22;2662;51.194;6.614;2023-03-01T12:17:32;7.30;94.40
5278;DHT22;2662;51.194;6.614;2023-03-01T12:20:18;7.40;94.60
5278;DHT22;2662;51.194;6.614;2023-03-01T12:22:58;7.00;93.10
5278;DHT22;2662;51.194;6.614;2023-03-01T12:25:29;6.80;94.30
5278;DHT22;2662;51.194;6.614;2023-03-01T12:28:12;6.90;94.80
5278;DHT22;2662;51.194;6.614;2023-03-01T12:31:08;7.00;94.10
5278;DHT22;2662;51.194;6.614;2023-03-01T12:33:51;7.40;95.50
5278;DHT22;2662;51.194;6.614;2023-03-01T12:36:44;7.60;94.80
5278;DHT22;2662;51.194;6.614;2023-03-01T12:39:28;7.60;95.40
5278;DHT22;2662;51.194;6.614;2023-03-01T12:42:04;7.90;95.30
5278;DHT22;2662;51.194;6.614;2023-03-01T12:44:46;7.70;95.00
5278;DHT22;2662;51.194;6.614;2023-03-01T12:47:26;7.70;94.70
5278;DHT22;2662;51.194;6.614;2023-03-01T12:50:03;7.60;94.40
5278;DHT22;2662;51.194;6.614;2023-03-01T12:52:37;7.70;94.50
5278;DHT22;2662;51.194;6.614;2023-03-01T12:55:18;7.70;94.40
5278;DHT22;2662;51.194;6.614;2023-03-01T12:57:51;7.80;94.90
5278;DHT22;2662;51.194;6.614;2023-03-01T13:00:30;7.90;94.60
5278;DHT22;2662;51.194;6.614;2023-03-01T13:03:03;7.80;94.10
5278;DHT22;2662;51.194;6.614;2023-03-01T13:05:39;7.70;93.60
5278;DHT22;2662;51.194;6.614;2023-03-01T13:08:15;7.50;93.10
5278;DHT22;2662;51.194;6.614;2023-03-01T13:10:48;7.50;93.90
5278;DHT22;2662;51.194;6.614;2023-03-01T13:13:21;7.70;95.00
5278;DHT22;2662;51.194;6.614;2023-03-01T13:15:48;7.50;93.60
5278;DHT22;2662;51.194;6.614;2023-03-01T13:18:31;7.50;94.00
5278;DHT22;2662;51.194;6.614;2023-03-01T13:21:02;7.60;93.80
5278;DHT22;2662;51.194;6.614;2023-03-01T13:23:33;7.50;93.40
5278;DHT22;2662;51.194;6.614;2023-03-01T13:26:04;7.30;93.90
5278;DHT22;2662;51.194;6.614;2023-03-01T13:28:50;7.60;93.60
5278;DHT22;2662;51.194;6.614;2023-03-01T13:34:47;7.30;93.60
5278;DHT22;2662;51.194;6.614;2023-03-01T13:37:27;7.40;94.40
5278;DHT22;2662;51.194;6.614;2023-03-01T13:39:57;7.50;93.50
5278;DHT22;2662;51.194;6.614;2023-03-01T13:42:39;7.40;93.20
5278;DHT22;2662;51.194;6.614;2023-03-01T13:45:20;7.40;93.70
5278;DHT22;2662;51.194;6.614;2023-03-01T13:47:50;7.60;93.20
5278;DHT22;2662;51.194;6.614;2023-03-01T13:50:20;7.70;93.30
5278;DHT22;2662;51.194;6.614;2023-03-01T13:52:54;7.70;93.40
5278;DHT22;2662;51.194;6.614;2023-03-01T13:55:26;7.70;93.10
5278;DHT22;2662;51.194;6.614;2023-03-01T13:57:56;7.60;92.50
5278;DHT22;2662;51.194;6.614;2023-03-01T14:00:32;7.60;92.80
5278;DHT22;2662;51.194;6.614;2023-03-01T14:03:01;7.40;93.10
5278;DHT22;2662;51.194;6.614;2023-03-01T14:05:29;7.60;93.80
5278;DHT22;2662;51.194;6.614;2023-03-01T14:07:57;7.60;93.20
5278;DHT22;2662;51.194;6.614;2023-03-01T14:10:30;7.50;93.80
5278;DHT22;2662;51.194;6.614;2023-03-01T14:13:10;7.60;93.60
5278;DHT22;2662;51.194;6.614;2023-03-01T14:15:43;7.50;94.10
5278;DHT22;2662;51.194;6.614;2023-03-01T14:18:14;7.60;93.90
5278;DHT22;2662;51.194;6.614;2023-03-01T14:20:45;7.60;93.30
5278;DHT22;2662;51.194;6.614;2023-03-01T14:23:19;7.80;93.40
5278;DHT22;2662;51.194;6.614;2023-03-01T14:25:48;7.80;93.70
5278;DHT22;2662;51.194;6.614;2023-03-01T14:28:18;7.80;94.20
5278;DHT22;2662;51.194;6.614;2023-03-01T14:30:48;7.80;94.00
5278;DHT22;2662;51.194;6.614;2023-03-01T14:33:21;7.70;94.00
5278;DHT22;2662;51.194;6.614;2023-03-01T14:35:59;7.60;93.60
5278;DHT22;2662;51.194;6.614;2023-03-01T14:38:33;7.70;94.00
5278;DHT22;2662;51.194;6.614;2023-03-01T14:41:03;7.70;94.70
5278;DHT22;2662;51.194;6.614;2023-03-01T14:43:30;7.80;94.70
5278;DHT22;2662;51.194;6.614;2023-03-01T14:45:57;7.70;93.90
5278;DHT22;2662;51.194;6.614;2023-03-01T14:48:25;7.50;94.40
5278;DHT22;2662;51.194;6.614;2023-03-01T14:50:53;7.40;94.50
5278;DHT22;2662;51.194;6.614;2023-03-01T14:53:22;7.30;95.00
5278;DHT22;2662;51.194;6.614;2023-03-01T14:55:53;7.20;95.40
5278;DHT22;2662;51.194;6.614;2023-03-01T14:58:22;7.50;96.10
5278;DHT22;2662;51.194;6.614;2023-03-01T15:00:51;7.40;95.80
5278;DHT22;2662;51.194;6.614;2023-03-01T15:03:24;7.40;95.50
5278;DHT22;2662;51.194;6.614;2023-03-01T15:05:52;7.50;95.10
5278;DHT22;2662;51.194;6.614;2023-03-01T15:08:21;7.60;95.90
5278;DHT22;2662;51.194;6.614;2023-03-01T15:11:02;7.80;96.50
5278;DHT22;2662;51.194;6.614;2023-03-01T15:13:31;7.80;95.70
5278;DHT22;2662;51.194;6.614;2023-03-01T15:16:06;7.70;95.30
5278;DHT22;2662;51.194;6.614;2023-03-01T15:18:35;7.50;94.80
5278;DHT22;2662;51.194;6.614;2023-03-01T15:21:07;7.60;95.20
5278;DHT22;2662;51.194;6.614;2023-03-01T15:23:36;7.60;95.70
5278;DHT22;2662;51.194;6.614;2023-03-01T15:26:04;7.70;95.10
5278;DHT22;2662;51.194;6.614;2023-03-01T15:28:33;7.80;95.10
5278;DHT22;2662;51.194;6.614;2023-03-01T15:31:03;7.90;94.70
5278;DHT22;2662;51.194;6.614;2023-03-01T15:33:37;7.80;94.90
5278;DHT22;2662;51.194;6.614;2023-03-01T15:36:31;7.80;94.00
5278;DHT22;2662;51.194;6.614;2023-03-01T15:38:59;7.80;94.00
5278;DHT22;2662;51.194;6.614;2023-03-01T15:41:29;7.80;94.40
5278;DHT22;2662;51.194;6.614;2023-03-01T15:43:58;7.80;93.70
5278;DHT22;2662;51.194;6.614;2023-03-01T15:46:30;7.80;93.70
5278;DHT22;2662;51.194;6.614;2023-03-01T15:48:59;7.80;93.80
5278;DHT22;2662;51.194;6.614;2023-03-01T15:51:32;7.70;93.70
5278;DHT22;2662;51.194;6.614;2023-03-01T15:54:03;7.50;93.80
5278;DHT22;2662;51.194;6.614;2023-03-01T15:56:31;7.40;93.70
5278;DHT22;2662;51.194;6.614;2023-03-01T15:58:59;7.40;94.50
5278;DHT22;2662;51.194;6.614;2023-03-01T16:01:26;7.40;94.70
5278;DHT22;2662;51.194;6.614;2023-03-01T16:03:53;7.40;95.10
5278;DHT22;2662;51.194;6.614;2023-03-01T16:06:20;7.50;95.10
5278;DHT22;2662;51.194;6.614;2023-03-01T16:08:47;7.40;95.10
5278;DHT22;2662;51.194;6.614;2023-03-01T16:11:15;7.30;95.10
5278;DHT22;2662;51.194;6.614;2023-03-01T16:13:44;7.30;95.50
5278;DHT22;2662;51.194;6.614;2023-03-01T16:16:12;7.30;95.40
5278;DHT22;2662;51.194;6.614;2023-03-01T16:18:42;7.20;95.00
5278;DHT22;2662;51.194;6.614;2023-03-01T16:21:12;7.20;94.40
5278;DHT22;2662;51.194;6.614;2023-03-01T16:23:41;7.00;94.50
5278;DHT22;2662;51.194;6.614;2023-03-01T16:26:07;7.10;93.90
5278;DHT22;2662;51.194;6.614;2023-03-01T16:28:34;7.00;93.50
5278;DHT22;2662;51.194;6.614;2023-03-01T16:31:02;7.00;93.90
5278;DHT22;2662;51.194;6.614;2023-03-01T16:33:30;7.00;93.80